Terminal Aerodrome Forecast
Issued by NWS

Home | Current Version | Previous Version | Text Only | Print | Product List | Glossary On
Versions: 1 2 3 4 5 6 7 8 9 10 11 12 13 14 15 16 17 18
000
FTUS46 KMTR 010500 RRA
TAFOAK
TAF
KOAK 010551Z 0106/0212 28007KT P6SM FEW200
     FM011200 VRB03KT 6SM BR SCT007
     FM011800 26005KT 6SM HZ FEW012 SCT200
     FM012100 29008KT P6SM BKN200=

USA.gov is the U.S. government's official web portal to all federal, state and local government web resources and services.